sensor_id;sensor_type;location;lat;lon;timestamp;P1;durP1;ratioP1;P2;durP2;ratioP2
67026;SDS011;53933;52.142;11.738;2022-08-11T00:01:36;8.52;;;2.33;;
67026;SDS011;53933;52.142;11.738;2022-08-11T00:04:10;8.77;;;2.28;;
67026;SDS011;53933;52.142;11.738;2022-08-11T00:06:39;9.90;;;2.45;;
67026;SDS011;53933;52.142;11.738;2022-08-11T00:09:07;6.72;;;2.60;;
67026;SDS011;53933;52.142;11.738;2022-08-11T00:11:37;17.27;;;2.00;;
67026;SDS011;53933;52.142;11.738;2022-08-11T00:14:11;5.45;;;2.33;;
67026;SDS011;53933;52.142;11.738;2022-08-11T00:16:39;11.82;;;2.80;;
67026;SDS011;53933;52.142;11.738;2022-08-11T00:19:08;13.75;;;2.78;;
67026;SDS011;53933;52.142;11.738;2022-08-11T00:21:39;8.10;;;2.50;;
67026;SDS011;53933;52.142;11.738;2022-08-11T00:24:08;9.75;;;2.35;;
67026;SDS011;53933;52.142;11.738;2022-08-11T00:26:35;4.47;;;2.20;;
67026;SDS011;53933;52.142;11.738;2022-08-11T00:29:06;5.07;;;2.38;;
67026;SDS011;53933;52.142;11.738;2022-08-11T00:31:34;5.63;;;2.25;;
67026;SDS011;53933;52.142;11.738;2022-08-11T00:34:02;11.55;;;2.45;;
67026;SDS011;53933;52.142;11.738;2022-08-11T00:36:37;6.65;;;2.33;;
67026;SDS011;53933;52.142;11.738;2022-08-11T00:39:09;6.45;;;1.92;;
67026;SDS011;53933;52.142;11.738;2022-08-11T00:41:38;12.93;;;2.42;;
67026;SDS011;53933;52.142;11.738;2022-08-11T00:44:13;12.15;;;2.17;;
67026;SDS011;53933;52.142;11.738;2022-08-11T00:47:03;12.52;;;2.28;;
67026;SDS011;53933;52.142;11.738;2022-08-11T00:49:45;17.60;;;2.72;;
67026;SDS011;53933;52.142;11.738;2022-08-11T00:52:28;8.52;;;2.10;;
67026;SDS011;53933;52.142;11.738;2022-08-11T01:01:07;8.25;;;2.63;;
67026;SDS011;53933;52.142;11.738;2022-08-11T01:03:47;5.18;;;2.45;;
67026;SDS011;53933;52.142;11.738;2022-08-11T01:06:45;4.95;;;2.13;;
67026;SDS011;53933;52.142;11.738;2022-08-11T01:09:27;9.63;;;2.40;;
67026;SDS011;53933;52.142;11.738;2022-08-11T01:12:13;2.80;;;2.60;;
67026;SDS011;53933;52.142;11.738;2022-08-11T01:30:18;3.15;;;2.58;;
67026;SDS011;53933;52.142;11.738;2022-08-11T01:33:18;5.65;;;2.97;;
67026;SDS011;53933;52.142;11.738;2022-08-11T01:36:41;3.03;;;2.10;;
67026;SDS011;53933;52.142;11.738;2022-08-11T01:42:47;6.25;;;2.63;;
67026;SDS011;53933;52.142;11.738;2022-08-11T01:45:45;4.00;;;2.50;;
67026;SDS011;53933;52.142;11.738;2022-08-11T01:48:18;5.20;;;2.83;;
67026;SDS011;53933;52.142;11.738;2022-08-11T01:50:55;11.05;;;3.20;;
67026;SDS011;53933;52.142;11.738;2022-08-11T01:56:05;9.90;;;3.05;;
67026;SDS011;53933;52.142;11.738;2022-08-11T01:58:44;25.90;;;4.30;;
67026;SDS011;53933;52.142;11.738;2022-08-11T02:01:26;40.90;;;5.15;;
67026;SDS011;53933;52.142;11.738;2022-08-11T02:04:05;25.42;;;4.50;;
67026;SDS011;53933;52.142;11.738;2022-08-11T02:06:43;22.95;;;3.88;;
67026;SDS011;53933;52.142;11.738;2022-08-11T02:09:25;11.88;;;3.10;;
67026;SDS011;53933;52.142;11.738;2022-08-11T02:12:17;19.23;;;3.25;;
67026;SDS011;53933;52.142;11.738;2022-08-11T02:15:01;22.35;;;3.92;;
67026;SDS011;53933;52.142;11.738;2022-08-11T02:17:39;21.25;;;3.58;;
67026;SDS011;53933;52.142;11.738;2022-08-11T02:20:15;23.42;;;4.22;;
67026;SDS011;53933;52.142;11.738;2022-08-11T02:23:08;16.85;;;4.10;;
67026;SDS011;53933;52.142;11.738;2022-08-11T02:26:04;8.18;;;2.83;;
67026;SDS011;53933;52.142;11.738;2022-08-11T02:28:37;8.15;;;3.33;;
67026;SDS011;53933;52.142;11.738;2022-08-11T02:31:14;4.30;;;3.10;;
67026;SDS011;53933;52.142;11.738;2022-08-11T02:34:06;8.15;;;3.58;;
67026;SDS011;53933;52.142;11.738;2022-08-11T02:36:41;13.48;;;3.47;;
67026;SDS011;53933;52.142;11.738;2022-08-11T02:39:14;10.68;;;3.22;;
67026;SDS011;53933;52.142;11.738;2022-08-11T02:41:49;15.77;;;3.45;;
67026;SDS011;53933;52.142;11.738;2022-08-11T02:44:43;11.05;;;2.95;;
67026;SDS011;53933;52.142;11.738;2022-08-11T02:47:15;8.93;;;2.92;;
67026;SDS011;53933;52.142;11.738;2022-08-11T02:49:55;10.07;;;3.20;;
67026;SDS011;53933;52.142;11.738;2022-08-11T02:52:29;6.00;;;3.08;;
67026;SDS011;53933;52.142;11.738;2022-08-11T02:55:05;8.82;;;3.15;;
67026;SDS011;53933;52.142;11.738;2022-08-11T02:57:46;11.43;;;2.95;;
67026;SDS011;53933;52.142;11.738;2022-08-11T03:00:17;3.95;;;2.80;;
67026;SDS011;53933;52.142;11.738;2022-08-11T03:02:48;8.00;;;3.45;;
67026;SDS011;53933;52.142;11.738;2022-08-11T03:05:30;10.32;;;3.13;;
67026;SDS011;53933;52.142;11.738;2022-08-11T03:08:10;7.75;;;3.15;;
67026;SDS011;53933;52.142;11.738;2022-08-11T03:10:47;5.72;;;2.70;;
67026;SDS011;53933;52.142;11.738;2022-08-11T03:13:35;11.10;;;3.03;;
67026;SDS011;53933;52.142;11.738;2022-08-11T03:16:37;13.13;;;2.92;;
67026;SDS011;53933;52.142;11.738;2022-08-11T03:19:13;6.22;;;2.45;;
67026;SDS011;53933;52.142;11.738;2022-08-11T03:21:47;5.88;;;2.75;;
67026;SDS011;53933;52.142;11.738;2022-08-11T03:24:23;8.37;;;3.00;;
67026;SDS011;53933;52.142;11.738;2022-08-11T03:27:00;6.32;;;2.92;;
67026;SDS011;53933;52.142;11.738;2022-08-11T03:32:04;6.53;;;3.15;;
67026;SDS011;53933;52.142;11.738;2022-08-11T03:34:36;6.95;;;3.30;;
67026;SDS011;53933;52.142;11.738;2022-08-11T03:37:05;6.65;;;2.42;;
67026;SDS011;53933;52.142;11.738;2022-08-11T03:39:58;5.43;;;2.75;;
67026;SDS011;53933;52.142;11.738;2022-08-11T03:42:34;6.68;;;3.22;;
67026;SDS011;53933;52.142;11.738;2022-08-11T03:45:14;2.80;;;2.60;;
67026;SDS011;53933;52.142;11.738;2022-08-11T03:47:55;8.07;;;3.30;;
67026;SDS011;53933;52.142;11.738;2022-08-11T03:50:31;6.47;;;2.63;;
67026;SDS011;53933;52.142;11.738;2022-08-11T03:53:15;9.95;;;3.03;;
67026;SDS011;53933;52.142;11.738;2022-08-11T03:55:57;3.72;;;2.65;;
67026;SDS011;53933;52.142;11.738;2022-08-11T03:58:52;5.75;;;2.78;;
67026;SDS011;53933;52.142;11.738;2022-08-11T04:07:29;10.45;;;3.22;;
67026;SDS011;53933;52.142;11.738;2022-08-11T04:10:28;10.35;;;3.40;;
67026;SDS011;53933;52.142;11.738;2022-08-11T04:16:23;9.10;;;3.30;;
67026;SDS011;53933;52.142;11.738;2022-08-11T04:19:28;8.45;;;3.35;;
67026;SDS011;53933;52.142;11.738;2022-08-11T04:22:21;7.63;;;3.58;;
67026;SDS011;53933;52.142;11.738;2022-08-11T04:25:35;6.85;;;3.50;;
67026;SDS011;53933;52.142;11.738;2022-08-11T04:28:22;10.98;;;3.00;;
67026;SDS011;53933;52.142;11.738;2022-08-11T04:31:04;11.23;;;3.22;;
67026;SDS011;53933;52.142;11.738;2022-08-11T04:33:48;10.70;;;3.15;;
67026;SDS011;53933;52.142;11.738;2022-08-11T04:36:36;10.45;;;3.25;;
67026;SDS011;53933;52.142;11.738;2022-08-11T04:39:33;6.35;;;3.00;;
67026;SDS011;53933;52.142;11.738;2022-08-11T04:45:39;7.75;;;3.28;;
67026;SDS011;53933;52.142;11.738;2022-08-11T04:48:38;5.93;;;3.40;;
67026;SDS011;53933;52.142;11.738;2022-08-11T04:51:46;6.03;;;3.05;;
67026;SDS011;53933;52.142;11.738;2022-08-11T04:54:47;13.02;;;3.78;;
67026;SDS011;53933;52.142;11.738;2022-08-11T04:57:44;14.43;;;3.30;;
67026;SDS011;53933;52.142;11.738;2022-08-11T05:00:35;12.60;;;2.83;;
67026;SDS011;53933;52.142;11.738;2022-08-11T05:03:52;8.35;;;2.67;;
67026;SDS011;53933;52.142;11.738;2022-08-11T05:07:06;4.47;;;2.60;;
67026;SDS011;53933;52.142;11.738;2022-08-11T05:09:57;6.93;;;3.13;;
67026;SDS011;53933;52.142;11.738;2022-08-11T05:12:35;4.95;;;2.47;;
67026;SDS011;53933;52.142;11.738;2022-08-11T05:15:10;5.07;;;2.78;;
67026;SDS011;53933;52.142;11.738;2022-08-11T05:17:57;7.57;;;2.55;;
67026;SDS011;53933;52.142;11.738;2022-08-11T05:20:46;15.23;;;3.38;;
67026;SDS011;53933;52.142;11.738;2022-08-11T05:23:35;5.80;;;3.00;;
67026;SDS011;53933;52.142;11.738;2022-08-11T05:26:24;19.00;;;3.28;;
67026;SDS011;53933;52.142;11.738;2022-08-11T05:29:23;7.90;;;2.70;;
67026;SDS011;53933;52.142;11.738;2022-08-11T05:32:11;7.55;;;2.75;;
67026;SDS011;53933;52.142;11.738;2022-08-11T05:34:59;17.25;;;2.95;;
67026;SDS011;53933;52.142;11.738;2022-08-11T05:37:31;12.27;;;3.58;;
67026;SDS011;53933;52.142;11.738;2022-08-11T05:40:06;9.38;;;3.13;;
67026;SDS011;53933;52.142;11.738;2022-08-11T05:42:54;8.93;;;2.75;;
67026;SDS011;53933;52.142;11.738;2022-08-11T05:45:40;9.93;;;2.35;;
67026;SDS011;53933;52.142;11.738;2022-08-11T05:48:28;14.15;;;2.70;;
67026;SDS011;53933;52.142;11.738;2022-08-11T05:51:16;7.45;;;2.83;;
67026;SDS011;53933;52.142;11.738;2022-08-11T05:54:02;11.82;;;3.00;;
67026;SDS011;53933;52.142;11.738;2022-08-11T05:56:52;16.23;;;3.17;;
67026;SDS011;53933;52.142;11.738;2022-08-11T05:59:22;16.13;;;2.97;;
67026;SDS011;53933;52.142;11.738;2022-08-11T06:01:50;11.10;;;3.17;;
67026;SDS011;53933;52.142;11.738;2022-08-11T06:04:18;7.53;;;2.83;;
67026;SDS011;53933;52.142;11.738;2022-08-11T06:06:50;11.27;;;3.63;;
67026;SDS011;53933;52.142;11.738;2022-08-11T06:09:24;10.32;;;3.05;;
67026;SDS011;53933;52.142;11.738;2022-08-11T06:11:55;18.38;;;3.42;;
67026;SDS011;53933;52.142;11.738;2022-08-11T06:14:24;11.18;;;3.10;;
67026;SDS011;53933;52.142;11.738;2022-08-11T06:16:52;17.80;;;3.33;;
67026;SDS011;53933;52.142;11.738;2022-08-11T06:19:23;13.82;;;3.53;;
67026;SDS011;53933;52.142;11.738;2022-08-11T06:21:57;17.02;;;3.13;;
67026;SDS011;53933;52.142;11.738;2022-08-11T06:24:26;9.98;;;2.88;;
67026;SDS011;53933;52.142;11.738;2022-08-11T06:26:54;7.88;;;2.90;;
67026;SDS011;53933;52.142;11.738;2022-08-11T06:29:22;11.98;;;2.67;;
67026;SDS011;53933;52.142;11.738;2022-08-11T06:31:50;9.77;;;2.80;;
67026;SDS011;53933;52.142;11.738;2022-08-11T06:34:37;7.28;;;2.83;;
67026;SDS011;53933;52.142;11.738;2022-08-11T06:37:20;6.93;;;2.85;;
67026;SDS011;53933;52.142;11.738;2022-08-11T06:39:51;8.35;;;2.90;;
67026;SDS011;53933;52.142;11.738;2022-08-11T06:42:33;7.65;;;2.75;;
67026;SDS011;53933;52.142;11.738;2022-08-11T06:45:06;29.65;;;3.67;;
67026;SDS011;53933;52.142;11.738;2022-08-11T06:47:45;11.98;;;3.28;;
67026;SDS011;53933;52.142;11.738;2022-08-11T06:50:15;13.35;;;3.33;;
67026;SDS011;53933;52.142;11.738;2022-08-11T06:53:01;7.80;;;2.80;;
67026;SDS011;53933;52.142;11.738;2022-08-11T06:55:30;7.80;;;2.78;;
67026;SDS011;53933;52.142;11.738;2022-08-11T06:58:24;9.10;;;3.03;;
67026;SDS011;53933;52.142;11.738;2022-08-11T07:01:12;4.47;;;3.28;;
67026;SDS011;53933;52.142;11.738;2022-08-11T07:03:42;6.80;;;3.05;;
67026;SDS011;53933;52.142;11.738;2022-08-11T07:06:17;10.82;;;3.25;;
67026;SDS011;53933;52.142;11.738;2022-08-11T07:12:17;11.77;;;3.28;;
67026;SDS011;53933;52.142;11.738;2022-08-11T07:15:22;4.80;;;2.75;;
67026;SDS011;53933;52.142;11.738;2022-08-11T07:18:07;9.30;;;2.80;;
67026;SDS011;53933;52.142;11.738;2022-08-11T07:21:11;5.68;;;2.60;;
67026;SDS011;53933;52.142;11.738;2022-08-11T07:23:58;4.88;;;3.25;;
67026;SDS011;53933;52.142;11.738;2022-08-11T07:26:47;9.65;;;3.53;;
67026;SDS011;53933;52.142;11.738;2022-08-11T07:29:36;10.23;;;3.40;;
67026;SDS011;53933;52.142;11.738;2022-08-11T07:32:13;4.93;;;2.97;;
67026;SDS011;53933;52.142;11.738;2022-08-11T07:34:45;4.35;;;2.70;;
67026;SDS011;53933;52.142;11.738;2022-08-11T07:37:18;5.43;;;3.10;;
67026;SDS011;53933;52.142;11.738;2022-08-11T07:39:46;7.68;;;3.78;;
67026;SDS011;53933;52.142;11.738;2022-08-11T07:42:14;6.93;;;3.20;;
67026;SDS011;53933;52.142;11.738;2022-08-11T07:44:48;5.20;;;3.10;;
67026;SDS011;53933;52.142;11.738;2022-08-11T07:47:35;5.85;;;2.90;;
67026;SDS011;53933;52.142;11.738;2022-08-11T07:50:22;7.57;;;2.78;;
67026;SDS011;53933;52.142;11.738;2022-08-11T07:53:06;5.25;;;3.03;;
67026;SDS011;53933;52.142;11.738;2022-08-11T07:55:33;9.93;;;2.95;;
67026;SDS011;53933;52.142;11.738;2022-08-11T07:58:02;6.00;;;2.97;;
67026;SDS011;53933;52.142;11.738;2022-08-11T08:00:48;9.02;;;3.05;;
67026;SDS011;53933;52.142;11.738;2022-08-11T08:03:37;6.35;;;3.13;;
67026;SDS011;53933;52.142;11.738;2022-08-11T08:06:22;6.05;;;3.33;;
67026;SDS011;53933;52.142;11.738;2022-08-11T08:09:07;5.45;;;3.33;;
67026;SDS011;53933;52.142;11.738;2022-08-11T08:11:52;4.25;;;3.33;;
67026;SDS011;53933;52.142;11.738;2022-08-11T08:14:38;4.88;;;2.83;;
67026;SDS011;53933;52.142;11.738;2022-08-11T08:17:22;8.98;;;2.70;;
67026;SDS011;53933;52.142;11.738;2022-08-11T08:20:10;6.35;;;3.10;;
67026;SDS011;53933;52.142;11.738;2022-08-11T08:22:38;4.93;;;3.15;;
67026;SDS011;53933;52.142;11.738;2022-08-11T08:25:06;8.90;;;2.80;;
67026;SDS011;53933;52.142;11.738;2022-08-11T08:27:34;6.15;;;2.90;;
67026;SDS011;53933;52.142;11.738;2022-08-11T08:30:02;6.82;;;2.90;;
67026;SDS011;53933;52.142;11.738;2022-08-11T08:32:48;12.98;;;3.40;;
67026;SDS011;53933;52.142;11.738;2022-08-11T08:35:18;7.68;;;3.03;;
67026;SDS011;53933;52.142;11.738;2022-08-11T08:37:45;8.80;;;3.13;;
67026;SDS011;53933;52.142;11.738;2022-08-11T08:40:15;6.20;;;2.88;;
67026;SDS011;53933;52.142;11.738;2022-08-11T08:42:44;7.72;;;3.05;;
67026;SDS011;53933;52.142;11.738;2022-08-11T08:45:15;4.70;;;2.97;;
67026;SDS011;53933;52.142;11.738;2022-08-11T08:47:44;3.55;;;2.80;;
67026;SDS011;53933;52.142;11.738;2022-08-11T08:50:13;7.90;;;3.17;;
67026;SDS011;53933;52.142;11.738;2022-08-11T08:52:46;4.60;;;2.60;;
67026;SDS011;53933;52.142;11.738;2022-08-11T08:55:18;4.25;;;2.75;;
67026;SDS011;53933;52.142;11.738;2022-08-11T08:57:47;6.47;;;2.90;;
67026;SDS011;53933;52.142;11.738;2022-08-11T09:00:14;7.22;;;2.80;;
67026;SDS011;53933;52.142;11.738;2022-08-11T09:02:42;7.65;;;3.00;;
67026;SDS011;53933;52.142;11.738;2022-08-11T09:05:09;8.15;;;3.70;;
67026;SDS011;53933;52.142;11.738;2022-08-11T09:07:37;12.07;;;2.80;;
67026;SDS011;53933;52.142;11.738;2022-08-11T09:10:07;9.55;;;3.03;;
67026;SDS011;53933;52.142;11.738;2022-08-11T09:12:35;5.78;;;2.92;;
67026;SDS011;53933;52.142;11.738;2022-08-11T09:15:05;5.00;;;3.10;;
67026;SDS011;53933;52.142;11.738;2022-08-11T09:17:35;5.75;;;3.30;;
67026;SDS011;53933;52.142;11.738;2022-08-11T09:20:05;7.03;;;3.20;;
67026;SDS011;53933;52.142;11.738;2022-08-11T09:22:34;6.53;;;2.95;;
67026;SDS011;53933;52.142;11.738;2022-08-11T09:25:21;6.68;;;2.67;;
67026;SDS011;53933;52.142;11.738;2022-08-11T09:28:09;6.18;;;2.92;;
67026;SDS011;53933;52.142;11.738;2022-08-11T09:30:39;9.48;;;3.42;;
67026;SDS011;53933;52.142;11.738;2022-08-11T09:33:06;8.32;;;3.40;;
67026;SDS011;53933;52.142;11.738;2022-08-11T09:35:37;3.58;;;2.72;;
67026;SDS011;53933;52.142;11.738;2022-08-11T09:38:06;11.32;;;3.10;;
67026;SDS011;53933;52.142;11.738;2022-08-11T09:40:55;10.18;;;3.08;;
67026;SDS011;53933;52.142;11.738;2022-08-11T09:43:23;10.55;;;3.25;;
67026;SDS011;53933;52.142;11.738;2022-08-11T09:46:09;4.47;;;3.10;;
67026;SDS011;53933;52.142;11.738;2022-08-11T09:48:38;6.47;;;2.97;;
67026;SDS011;53933;52.142;11.738;2022-08-11T09:51:07;6.15;;;3.00;;
67026;SDS011;53933;52.142;11.738;2022-08-11T09:53:36;11.23;;;3.38;;
67026;SDS011;53933;52.142;11.738;2022-08-11T09:56:06;10.25;;;3.38;;
67026;SDS011;53933;52.142;11.738;2022-08-11T09:58:54;3.90;;;2.75;;
67026;SDS011;53933;52.142;11.738;2022-08-11T10:01:21;5.50;;;2.90;;
67026;SDS011;53933;52.142;11.738;2022-08-11T10:03:54;3.45;;;2.92;;
67026;SDS011;53933;52.142;11.738;2022-08-11T10:06:24;14.30;;;3.08;;
67026;SDS011;53933;52.142;11.738;2022-08-11T10:09:10;7.85;;;3.38;;
67026;SDS011;53933;52.142;11.738;2022-08-11T10:11:40;12.15;;;3.08;;
67026;SDS011;53933;52.142;11.738;2022-08-11T10:14:08;6.00;;;2.80;;
67026;SDS011;53933;52.142;11.738;2022-08-11T10:16:50;5.35;;;2.58;;
67026;SDS011;53933;52.142;11.738;2022-08-11T10:19:17;10.07;;;2.50;;
67026;SDS011;53933;52.142;11.738;2022-08-11T10:21:46;4.10;;;2.30;;
67026;SDS011;53933;52.142;11.738;2022-08-11T10:24:36;4.03;;;2.85;;
67026;SDS011;53933;52.142;11.738;2022-08-11T10:27:25;24.17;;;4.13;;
67026;SDS011;53933;52.142;11.738;2022-08-11T10:29:52;2.97;;;2.20;;
67026;SDS011;53933;52.142;11.738;2022-08-11T10:32:37;6.83;;;2.33;;
67026;SDS011;53933;52.142;11.738;2022-08-11T10:35:22;5.45;;;2.08;;
67026;SDS011;53933;52.142;11.738;2022-08-11T10:37:50;6.85;;;2.67;;
67026;SDS011;53933;52.142;11.738;2022-08-11T10:40:18;5.03;;;2.30;;
67026;SDS011;53933;52.142;11.738;2022-08-11T10:42:49;7.45;;;2.72;;
67026;SDS011;53933;52.142;11.738;2022-08-11T10:45:31;2.78;;;2.47;;
67026;SDS011;53933;52.142;11.738;2022-08-11T10:48:17;2.78;;;2.55;;
67026;SDS011;53933;52.142;11.738;2022-08-11T10:50:46;3.00;;;2.70;;
67026;SDS011;53933;52.142;11.738;2022-08-11T10:53:32;4.95;;;2.80;;
67026;SDS011;53933;52.142;11.738;2022-08-11T10:56:16;4.17;;;2.57;;
67026;SDS011;53933;52.142;11.738;2022-08-11T11:01:33;6.45;;;2.20;;
67026;SDS011;53933;52.142;11.738;2022-08-11T11:04:03;5.60;;;2.63;;
67026;SDS011;53933;52.142;11.738;2022-08-11T11:06:34;6.75;;;2.40;;
67026;SDS011;53933;52.142;11.738;2022-08-11T11:09:10;7.85;;;2.67;;
67026;SDS011;53933;52.142;11.738;2022-08-11T11:11:42;6.38;;;2.20;;
67026;SDS011;53933;52.142;11.738;2022-08-11T11:14:31;2.60;;;2.38;;
67026;SDS011;53933;52.142;11.738;2022-08-11T11:17:18;5.13;;;2.70;;
67026;SDS011;53933;52.142;11.738;2022-08-11T11:20:24;4.30;;;2.08;;
67026;SDS011;53933;52.142;11.738;2022-08-11T11:22:55;4.57;;;2.30;;
67026;SDS011;53933;52.142;11.738;2022-08-11T11:25:33;5.25;;;2.50;;
67026;SDS011;53933;52.142;11.738;2022-08-11T11:31:02;4.40;;;2.38;;
67026;SDS011;53933;52.142;11.738;2022-08-11T11:33:40;7.88;;;2.50;;
67026;SDS011;53933;52.142;11.738;2022-08-11T11:36:23;4.50;;;2.50;;
67026;SDS011;53933;52.142;11.738;2022-08-11T11:38:57;3.45;;;2.33;;
67026;SDS011;53933;52.142;11.738;2022-08-11T11:41:25;3.30;;;2.40;;
67026;SDS011;53933;52.142;11.738;2022-08-11T11:43:53;11.65;;;2.58;;
67026;SDS011;53933;52.142;11.738;2022-08-11T11:46:23;8.98;;;2.83;;
67026;SDS011;53933;52.142;11.738;2022-08-11T11:48:52;3.88;;;2.28;;
67026;SDS011;53933;52.142;11.738;2022-08-11T11:51:19;7.18;;;2.55;;
67026;SDS011;53933;52.142;11.738;2022-08-11T11:53:47;7.32;;;2.60;;
67026;SDS011;53933;52.142;11.738;2022-08-11T11:56:14;14.43;;;2.40;;
67026;SDS011;53933;52.142;11.738;2022-08-11T11:58:41;5.85;;;2.33;;
67026;SDS011;53933;52.142;11.738;2022-08-11T12:01:28;5.13;;;2.30;;
67026;SDS011;53933;52.142;11.738;2022-08-11T12:03:56;6.88;;;2.42;;
67026;SDS011;53933;52.142;11.738;2022-08-11T12:06:24;3.20;;;2.42;;
67026;SDS011;53933;52.142;11.738;2022-08-11T12:08:52;4.07;;;2.33;;
67026;SDS011;53933;52.142;11.738;2022-08-11T12:11:21;5.72;;;2.38;;
67026;SDS011;53933;52.142;11.738;2022-08-11T12:14:07;5.20;;;2.47;;
67026;SDS011;53933;52.142;11.738;2022-08-11T12:16:38;6.47;;;2.42;;
67026;SDS011;53933;52.142;11.738;2022-08-11T12:19:06;2.40;;;2.20;;
67026;SDS011;53933;52.142;11.738;2022-08-11T12:21:34;4.00;;;2.08;;
67026;SDS011;53933;52.142;11.738;2022-08-11T12:24:02;4.20;;;2.08;;
67026;SDS011;53933;52.142;11.738;2022-08-11T12:26:47;5.37;;;2.50;;
67026;SDS011;53933;52.142;11.738;2022-08-11T12:29:32;5.63;;;2.30;;
67026;SDS011;53933;52.142;11.738;2022-08-11T12:32:00;3.35;;;2.22;;
67026;SDS011;53933;52.142;11.738;2022-08-11T12:34:32;6.13;;;2.50;;
67026;SDS011;53933;52.142;11.738;2022-08-11T12:37:00;5.70;;;2.50;;
67026;SDS011;53933;52.142;11.738;2022-08-11T12:39:35;6.47;;;2.40;;
67026;SDS011;53933;52.142;11.738;2022-08-11T12:42:21;8.18;;;2.80;;
67026;SDS011;53933;52.142;11.738;2022-08-11T12:45:06;6.75;;;2.42;;
67026;SDS011;53933;52.142;11.738;2022-08-11T12:48:02;10.20;;;2.50;;
67026;SDS011;53933;52.142;11.738;2022-08-11T12:50:55;4.07;;;2.33;;
67026;SDS011;53933;52.142;11.738;2022-08-11T12:53:48;7.15;;;2.80;;
67026;SDS011;53933;52.142;11.738;2022-08-11T12:56:18;5.55;;;2.22;;
67026;SDS011;53933;52.142;11.738;2022-08-11T12:59:05;3.95;;;2.50;;
67026;SDS011;53933;52.142;11.738;2022-08-11T13:01:51;3.30;;;2.28;;
67026;SDS011;53933;52.142;11.738;2022-08-11T13:04:38;7.43;;;2.35;;
67026;SDS011;53933;52.142;11.738;2022-08-11T13:07:20;7.10;;;2.67;;
67026;SDS011;53933;52.142;11.738;2022-08-11T13:09:47;9.95;;;2.85;;
67026;SDS011;53933;52.142;11.738;2022-08-11T13:12:15;4.65;;;2.25;;
67026;SDS011;53933;52.142;11.738;2022-08-11T13:15:00;2.60;;;2.40;;
67026;SDS011;53933;52.142;11.738;2022-08-11T13:17:28;6.20;;;2.42;;
67026;SDS011;53933;52.142;11.738;2022-08-11T13:19:59;4.22;;;2.50;;
67026;SDS011;53933;52.142;11.738;2022-08-11T13:22:27;5.53;;;2.47;;
67026;SDS011;53933;52.142;11.738;2022-08-11T13:24:54;6.78;;;2.80;;
67026;SDS011;53933;52.142;11.738;2022-08-11T13:27:23;3.60;;;2.30;;
67026;SDS011;53933;52.142;11.738;2022-08-11T13:29:50;6.28;;;2.50;;
67026;SDS011;53933;52.142;11.738;2022-08-11T13:32:38;6.32;;;2.50;;
67026;SDS011;53933;52.142;11.738;2022-08-11T13:35:08;4.55;;;2.30;;
67026;SDS011;53933;52.142;11.738;2022-08-11T13:37:38;3.42;;;2.35;;
67026;SDS011;53933;52.142;11.738;2022-08-11T13:40:07;2.97;;;2.28;;
67026;SDS011;53933;52.142;11.738;2022-08-11T13:42:35;8.48;;;2.65;;
67026;SDS011;53933;52.142;11.738;2022-08-11T13:45:04;4.22;;;2.80;;
67026;SDS011;53933;52.142;11.738;2022-08-11T13:47:32;2.67;;;2.45;;
67026;SDS011;53933;52.142;11.738;2022-08-11T13:50:00;4.10;;;2.50;;
67026;SDS011;53933;52.142;11.738;2022-08-11T13:52:28;4.50;;;2.63;;
67026;SDS011;53933;52.142;11.738;2022-08-11T13:54:56;7.57;;;2.40;;
67026;SDS011;53933;52.142;11.738;2022-08-11T13:57:23;4.30;;;2.10;;
67026;SDS011;53933;52.142;11.738;2022-08-11T13:59:51;5.03;;;2.22;;
67026;SDS011;53933;52.142;11.738;2022-08-11T14:02:20;7.05;;;2.40;;
67026;SDS011;53933;52.142;11.738;2022-08-11T14:04:52;5.03;;;2.50;;
67026;SDS011;53933;52.142;11.738;2022-08-11T14:07:21;5.00;;;2.28;;
67026;SDS011;53933;52.142;11.738;2022-08-11T14:09:54;8.00;;;3.13;;
67026;SDS011;53933;52.142;11.738;2022-08-11T14:12:23;3.58;;;2.35;;
67026;SDS011;53933;52.142;11.738;2022-08-11T14:15:11;4.40;;;2.67;;
67026;SDS011;53933;52.142;11.738;2022-08-11T14:17:43;2.97;;;2.08;;
67026;SDS011;53933;52.142;11.738;2022-08-11T14:20:17;3.10;;;2.20;;
67026;SDS011;53933;52.142;11.738;2022-08-11T14:22:45;6.15;;;2.50;;
67026;SDS011;53933;52.142;11.738;2022-08-11T14:25:14;7.15;;;2.25;;
67026;SDS011;53933;52.142;11.738;2022-08-11T14:27:42;4.88;;;2.60;;
67026;SDS011;53933;52.142;11.738;2022-08-11T14:30:12;3.00;;;2.58;;
67026;SDS011;53933;52.142;11.738;2022-08-11T14:32:53;5.13;;;2.30;;
67026;SDS011;53933;52.142;11.738;2022-08-11T14:35:21;3.75;;;2.60;;
67026;SDS011;53933;52.142;11.738;2022-08-11T14:37:48;3.08;;;2.50;;
67026;SDS011;53933;52.142;11.738;2022-08-11T14:40:16;5.28;;;2.40;;
67026;SDS011;53933;52.142;11.738;2022-08-11T14:42:57;8.57;;;2.33;;
67026;SDS011;53933;52.142;11.738;2022-08-11T14:45:42;4.30;;;2.60;;
67026;SDS011;53933;52.142;11.738;2022-08-11T14:48:27;5.68;;;2.50;;
67026;SDS011;53933;52.142;11.738;2022-08-11T14:50:54;7.93;;;2.72;;
67026;SDS011;53933;52.142;11.738;2022-08-11T14:53:21;3.33;;;2.78;;
67026;SDS011;53933;52.142;11.738;2022-08-11T14:55:50;3.92;;;2.13;;
67026;SDS011;53933;52.142;11.738;2022-08-11T14:58:35;2.33;;;2.10;;
67026;SDS011;53933;52.142;11.738;2022-08-11T15:01:02;4.05;;;2.35;;
67026;SDS011;53933;52.142;11.738;2022-08-11T15:03:50;3.40;;;2.13;;
67026;SDS011;53933;52.142;11.738;2022-08-11T15:06:16;3.10;;;2.35;;
67026;SDS011;53933;52.142;11.738;2022-08-11T15:08:43;3.50;;;2.42;;
67026;SDS011;53933;52.142;11.738;2022-08-11T15:11:23;5.70;;;2.80;;
67026;SDS011;53933;52.142;11.738;2022-08-11T15:14:11;2.40;;;2.20;;
67026;SDS011;53933;52.142;11.738;2022-08-11T15:16:40;2.88;;;2.10;;
67026;SDS011;53933;52.142;11.738;2022-08-11T15:19:27;2.22;;;2.00;;
67026;SDS011;53933;52.142;11.738;2022-08-11T15:21:57;2.33;;;2.13;;
67026;SDS011;53933;52.142;11.738;2022-08-11T15:24:41;6.70;;;2.55;;
67026;SDS011;53933;52.142;11.738;2022-08-11T15:27:10;3.33;;;2.03;;
67026;SDS011;53933;52.142;11.738;2022-08-11T15:29:57;6.25;;;2.47;;
67026;SDS011;53933;52.142;11.738;2022-08-11T15:32:43;4.30;;;2.40;;
67026;SDS011;53933;52.142;11.738;2022-08-11T15:35:28;6.43;;;2.30;;
67026;SDS011;53933;52.142;11.738;2022-08-11T15:38:14;7.10;;;2.50;;
67026;SDS011;53933;52.142;11.738;2022-08-11T15:40:42;3.90;;;2.17;;
67026;SDS011;53933;52.142;11.738;2022-08-11T15:43:28;4.18;;;2.72;;
67026;SDS011;53933;52.142;11.738;2022-08-11T15:46:17;7.68;;;2.60;;
67026;SDS011;53933;52.142;11.738;2022-08-11T15:48:47;6.95;;;2.67;;
67026;SDS011;53933;52.142;11.738;2022-08-11T15:51:25;5.72;;;3.00;;
67026;SDS011;53933;52.142;11.738;2022-08-11T15:53:58;4.10;;;2.50;;
67026;SDS011;53933;52.142;11.738;2022-08-11T15:56:30;7.63;;;3.00;;
67026;SDS011;53933;52.142;11.738;2022-08-11T15:59:00;5.75;;;3.30;;
67026;SDS011;53933;52.142;11.738;2022-08-11T16:01:45;4.93;;;2.97;;
67026;SDS011;53933;52.142;11.738;2022-08-11T16:04:31;5.78;;;2.72;;
67026;SDS011;53933;52.142;11.738;2022-08-11T16:07:00;6.25;;;2.50;;
67026;SDS011;53933;52.142;11.738;2022-08-11T16:09:30;4.80;;;2.70;;
67026;SDS011;53933;52.142;11.738;2022-08-11T16:12:00;6.57;;;2.90;;
67026;SDS011;53933;52.142;11.738;2022-08-11T16:14:32;5.00;;;2.53;;
67026;SDS011;53933;52.142;11.738;2022-08-11T16:17:18;4.72;;;2.30;;
67026;SDS011;53933;52.142;11.738;2022-08-11T16:19:49;3.60;;;2.20;;
67026;SDS011;53933;52.142;11.738;2022-08-11T16:22:20;4.53;;;2.80;;
67026;SDS011;53933;52.142;11.738;2022-08-11T16:24:57;6.32;;;2.33;;